Terminal Aerodrome Forecast
Issued by NWS

Home | Current Version | Previous Version | Text Only | Print | Product List | Glossary On
Versions: 1 2 3 4 5 6 7 8 9 10 11 12 13 14 15
093
FTUS43 KPAH 231720
TAFCGI
TAF
KCGI 231720Z 2318/2418 15010KT P6SM SCT050
     FM240000 16008KT P6SM SCT250
     FM240600 17012KT P6SM SCT250 WS020/18045KT
     FM241200 18012G20KT P6SM BKN025=

USA.gov is the U.S. government's official web portal to all federal, state and local government web resources and services.